Time;durP1;ratioP1;P1;durP2;ratioP2;P2;SDS_P1;SDS_P2;PMS_P1;PMS_P2;Temp;Humidity;BMP_temperature;BMP_pressure;BME280_temperature;BME280_humidity;BME280_pressure;Samples;Min_cycle;Max_cycle;Signal;HPM_P1;HPM_P2
2023/08/15 00:00:32;;;;;;;;;;;;;;;;;;5003317;28;19920;-70
2023/08/15 00:02:58;;;;;;;;;;;;;;;;;;4999206;28;19921;-71
2023/08/15 00:05:23;;;;;;;;;;;;;;;;;;5011103;28;19920;-70
2023/08/15 00:07:49;;;;;;;;;;;;;;;;;;5002339;28;20471;-71
2023/08/15 00:10:14;;;;;;;;;;;;;;;;;;5014880;28;20463;-70
2023/08/15 00:12:40;;;;;;;;;;;;;;;;;;5018817;28;20436;-70
2023/08/15 00:15:05;;;;;;;;;;;;;;;;;;5013380;28;19917;-70
2023/08/15 00:17:31;;;;;;;;;;;;;;;;;;5001862;28;19975;-71
2023/08/15 00:19:56;;;;;;;;;;;;;;;;;;5015117;28;20545;-70
2023/08/15 00:22:22;;;;;;;;;;;;;;;;;;5001994;28;20035;-70
2023/08/15 00:24:47;;;;;;;;;;;;;;;;;;5017567;28;19923;-70
2023/08/15 00:27:12;;;;;;;;;;;;;;;;;;5017951;28;19917;-70
2023/08/15 00:29:38;;;;;;;;;;;;;;;;;;5019342;28;19921;-71
2023/08/15 00:32:03;;;;;;;;;;;;;;;;;;5001515;28;19924;-70
2023/08/15 00:34:28;;;;;;;;;;;;;;;;;;5013282;28;20850;-71
2023/08/15 00:36:54;;;;;;;;;;;;;;;;;;5044589;28;20068;-70
2023/08/15 00:39:19;;;;;;;;;;;;;;;;;;5054397;28;19984;-70
2023/08/15 00:41:44;;;;;;;;;;;;;;;;;;5054707;28;19920;-71
2023/08/15 00:44:10;;;;;;;;;;;;;;;;;;5021856;28;20347;-71
2023/08/15 00:46:35;;;;;;;;;;;;;;;;;;5043049;28;19920;-70
2023/08/15 00:49:00;;;;;;;;;;;;;;;;;;5040763;28;20422;-71
2023/08/15 00:51:26;;;;;;;;;;;;;;;;;;5057121;28;20050;-71
2023/08/15 00:53:51;;;;;;;;;;;;;;;;;;5040699;28;20378;-71
2023/08/15 00:56:16;;;;;;;;;;;;;;;;;;5059265;28;20452;-70
2023/08/15 00:58:42;;;;;;;;;;;;;;;;;;5041015;28;19928;-70
2023/08/15 01:01:09;;;;;;;;;;;;;;;;;;5039901;28;19920;-70
2023/08/15 01:03:36;;;;;;;;;;;;;;;;;;5043701;28;19970;-70
2023/08/15 01:06:01;;;;;;;;;;;;;;;;;;5041603;28;19920;-71
2023/08/15 01:08:26;;;;;;;;;;;;;;;;;;5043454;28;19927;-70
2023/08/15 01:10:52;;;;;;;;;;;;;;;;;;5040791;28;20319;-70
2023/08/15 01:13:17;;;;;;;;;;;;;;;;;;5038762;28;19924;-70
2023/08/15 01:15:42;;;;;;;;;;;;;;;;;;5057314;28;19924;-71
2023/08/15 01:18:08;;;;;;;;;;;;;;;;;;5057020;28;20379;-70
2023/08/15 01:20:33;;;;;;;;;;;;;;;;;;5044718;28;20042;-71
2023/08/15 01:22:58;;;;;;;;;;;;;;;;;;5027125;28;19920;-70
2023/08/15 01:25:24;;;;;;;;;;;;;;;;;;5026142;28;19924;-70
2023/08/15 01:27:52;;;;;;;;;;;;;;;;;;5039774;28;20059;-70
2023/08/15 01:30:17;;;;;;;;;;;;;;;;;;5037153;28;19966;-70
2023/08/15 01:32:43;;;;;;;;;;;;;;;;;;5054810;28;20019;-70
2023/08/15 01:35:08;;;;;;;;;;;;;;;;;;5058356;28;20055;-72
2023/08/15 01:37:36;;;;;;;;;;;;;;;;;;5027497;28;20351;-71
2023/08/15 01:40:02;;;;;;;;;;;;;;;;;;5038976;28;19931;-70
2023/08/15 01:42:27;;;;;;;;;;;;;;;;;;5059430;28;20279;-70
2023/08/15 01:44:55;;;;;;;;;;;;;;;;;;5027793;28;19926;-71
2023/08/15 01:47:20;;;;;;;;;;;;;;;;;;5058202;28;19920;-71
2023/08/15 01:49:45;;;;;;;;;;;;;;;;;;5038859;28;19920;-71
2023/08/15 01:52:11;;;;;;;;;;;;;;;;;;5041485;28;20461;-71
2023/08/15 01:54:39;;;;;;;;;;;;;;;;;;5039787;28;19950;-71
2023/08/15 01:57:04;;;;;;;;;;;;;;;;;;5023945;28;19916;-72
2023/08/15 01:59:29;;;;;;;;;;;;;;;;;;5057880;28;19978;-71
2023/08/15 02:01:54;;;;;;;;;;;;;;;;;;5024369;28;20280;-71
2023/08/15 02:04:20;;;;;;;;;;;;;;;;;;5039375;28;20059;-72
2023/08/15 02:06:45;;;;;;;;;;;;;;;;;;5057970;28;19969;-72
2023/08/15 02:09:13;;;;;;;;;;;;;;;;;;5055050;28;20387;-71
2023/08/15 02:11:38;;;;;;;;;;;;;;;;;;5039549;28;19928;-72
2023/08/15 02:14:03;;;;;;;;;;;;;;;;;;5039391;28;19924;-72
2023/08/15 02:16:29;;;;;;;;;;;;;;;;;;5024537;28;19916;-72
2023/08/15 02:18:55;;;;;;;;;;;;;;;;;;5054274;28;20038;-71
2023/08/15 02:21:20;;;;;;;;;;;;;;;;;;5026844;28;20364;-70
2023/08/15 02:23:45;;;;;;;;;;;;;;;;;;5055214;28;19916;-70
2023/08/15 02:26:11;;;;;;;;;;;;;;;;;;5043841;28;19928;-71
2023/08/15 02:28:36;;;;;;;;;;;;;;;;;;5039174;28;19916;-71
2023/08/15 02:31:04;;;;;;;;;;;;;;;;;;5038313;28;21494;-71
2023/08/15 02:33:30;;;;;;;;;;;;;;;;;;5040135;28;20642;-71
2023/08/15 02:35:55;;;;;;;;;;;;;;;;;;5031155;28;19931;-72
2023/08/15 02:38:23;;;;;;;;;;;;;;;;;;5015612;28;20588;-70
2023/08/15 02:40:48;;;;;;;;;;;;;;;;;;5016386;28;19916;-70
2023/08/15 02:43:16;;;;;;;;;;;;;;;;;;5016572;28;20169;-72
2023/08/15 02:45:41;;;;;;;;;;;;;;;;;;5016815;28;19924;-72
2023/08/15 02:48:06;;;;;;;;;;;;;;;;;;5017221;28;19921;-72
2023/08/15 02:50:32;;;;;;;;;;;;;;;;;;5022682;28;21354;-72
2023/08/15 02:53:00;;;;;;;;;;;;;;;;;;5016250;28;19935;-73
2023/08/15 02:55:25;;;;;;;;;;;;;;;;;;5019480;28;19917;-71
2023/08/15 02:57:50;;;;;;;;;;;;;;;;;;5002212;28;21602;-73
2023/08/15 03:00:18;;;;;;;;;;;;;;;;;;5014384;28;20285;-71
2023/08/15 03:02:43;;;;;;;;;;;;;;;;;;5017747;28;19927;-67
2023/08/15 03:05:08;;;;;;;;;;;;;;;;;;5016997;28;19921;-68
2023/08/15 03:07:34;;;;;;;;;;;;;;;;;;4998833;28;19920;-69
2023/08/15 03:10:03;;;;;;;;;;;;;;;;;;5005253;28;19917;-68
2023/08/15 03:12:29;;;;;;;;;;;;;;;;;;4999630;28;20020;-69
2023/08/15 03:14:54;;;;;;;;;;;;;;;;;;5016636;28;19925;-69
2023/08/15 03:17:21;;;;;;;;;;;;;;;;;;5015165;28;19927;-71
2023/08/15 03:19:49;;;;;;;;;;;;;;;;;;5018055;28;20426;-70
2023/08/15 03:22:14;;;;;;;;;;;;;;;;;;5013820;28;20187;-70
2023/08/15 03:24:40;;;;;;;;;;;;;;;;;;5015954;28;19921;-69
2023/08/15 03:27:05;;;;;;;;;;;;;;;;;;5014480;28;19917;-70
2023/08/15 03:29:34;;;;;;;;;;;;;;;;;;5014076;28;19917;-69
2023/08/15 03:32:00;;;;;;;;;;;;;;;;;;5013179;28;20465;-69
2023/08/15 03:34:28;;;;;;;;;;;;;;;;;;4997423;28;19928;-70
2023/08/15 03:36:53;;;;;;;;;;;;;;;;;;5001365;28;19924;-71
2023/08/15 03:39:18;;;;;;;;;;;;;;;;;;5011761;28;19920;-70
2023/08/15 03:41:45;;;;;;;;;;;;;;;;;;5011612;28;20401;-70
2023/08/15 03:44:10;;;;;;;;;;;;;;;;;;5015003;28;19967;-70
2023/08/15 03:46:35;;;;;;;;;;;;;;;;;;5013856;28;20106;-70
2023/08/15 03:49:01;;;;;;;;;;;;;;;;;;5016627;28;19917;-69
2023/08/15 03:51:26;;;;;;;;;;;;;;;;;;5014719;28;20374;-69
2023/08/15 03:53:55;;;;;;;;;;;;;;;;;;5009329;28;19929;-70
2023/08/15 03:56:20;;;;;;;;;;;;;;;;;;5017000;28;19922;-70
2023/08/15 03:58:45;;;;;;;;;;;;;;;;;;5012816;28;19959;-70
2023/08/15 04:01:10;;;;;;;;;;;;;;;;;;5011726;28;19971;-70
2023/08/15 04:03:36;;;;;;;;;;;;;;;;;;5014083;28;20372;-69
2023/08/15 04:06:01;;;;;;;;;;;;;;;;;;5014060;28;20002;-69
2023/08/15 04:08:27;;;;;;;;;;;;;;;;;;5011287;28;19920;-70
2023/08/15 04:10:52;;;;;;;;;;;;;;;;;;4995841;28;19929;-70
2023/08/15 04:13:17;;;;;;;;;;;;;;;;;;5011113;28;20317;-70
2023/08/15 04:15:43;;;;;;;;;;;;;;;;;;5017173;28;19928;-70
2023/08/15 04:18:08;;;;;;;;;;;;;;;;;;5019632;28;20635;-70
2023/08/15 04:20:33;;;;;;;;;;;;;;;;;;5016974;28;19924;-71
2023/08/15 04:22:59;;;;;;;;;;;;;;;;;;5020714;28;19918;-70
2023/08/15 04:25:24;;;;;;;;;;;;;;;;;;5019754;28;19927;-70
2023/08/15 04:27:52;;;;;;;;;;;;;;;;;;5019767;28;20292;-70
2023/08/15 04:30:18;;;;;;;;;;;;;;;;;;5003757;28;19921;-70
2023/08/15 04:32:43;;;;;;;;;;;;;;;;;;5021558;28;20361;-70
2023/08/15 04:35:09;;;;;;;;;;;;;;;;;;5025666;28;19963;-70
2023/08/15 04:37:34;;;;;;;;;;;;;;;;;;5017763;28;19929;-70
2023/08/15 04:39:59;;;;;;;;;;;;;;;;;;5003935;28;19921;-71
2023/08/15 04:42:25;;;;;;;;;;;;;;;;;;5022184;28;20502;-71
2023/08/15 04:44:50;;;;;;;;;;;;;;;;;;5022645;28;19975;-69
2023/08/15 04:47:16;;;;;;;;;;;;;;;;;;5020252;28;20231;-70
2023/08/15 04:49:42;;;;;;;;;;;;;;;;;;5002983;28;19920;-70
2023/08/15 04:52:08;;;;;;;;;;;;;;;;;;5005312;28;20405;-69
2023/08/15 04:54:33;;;;;;;;;;;;;;;;;;5017121;28;19921;-69
2023/08/15 04:57:02;;;;;;;;;;;;;;;;;;5005130;28;20412;-69
2023/08/15 04:59:27;;;;;;;;;;;;;;;;;;5020601;28;19917;-69
2023/08/15 05:01:55;;;;;;;;;;;;;;;;;;5020786;28;20175;-69
2023/08/15 05:04:20;;;;;;;;;;;;;;;;;;5019232;28;19916;-69
2023/08/15 05:06:46;;;;;;;;;;;;;;;;;;5017469;28;19917;-69
2023/08/15 05:09:11;;;;;;;;;;;;;;;;;;5017720;28;19921;-69
2023/08/15 05:11:36;;;;;;;;;;;;;;;;;;5002914;28;20287;-70
2023/08/15 05:14:02;;;;;;;;;;;;;;;;;;5004803;28;19928;-70
2023/08/15 05:16:27;;;;;;;;;;;;;;;;;;5016290;28;19921;-71
2023/08/15 05:18:52;;;;;;;;;;;;;;;;;;5018537;28;19944;-70
2023/08/15 05:21:18;;;;;;;;;;;;;;;;;;5015017;28;20333;-70
2023/08/15 05:23:43;;;;;;;;;;;;;;;;;;5016964;28;19920;-70
2023/08/15 05:26:09;;;;;;;;;;;;;;;;;;5021135;28;19921;-70
2023/08/15 05:28:34;;;;;;;;;;;;;;;;;;5017612;28;19917;-70
2023/08/15 05:30:59;;;;;;;;;;;;;;;;;;5019939;28;19949;-70
2023/08/15 05:33:25;;;;;;;;;;;;;;;;;;5018946;28;19948;-70
2023/08/15 05:35:54;;;;;;;;;;;;;;;;;;5282405;23;19944;-71
2023/08/15 05:38:19;;;;;;;;;;;;;;;;;;4990915;28;19936;-71
2023/08/15 05:40:44;;;;;;;;;;;;;;;;;;4988698;28;19920;-71
2023/08/15 05:43:12;;;;;;;;;;;;;;;;;;5009610;28;19921;-70
2023/08/15 05:45:37;;;;;;;;;;;;;;;;;;4993611;28;20268;-70
2023/08/15 05:48:05;;;;;;;;;;;;;;;;;;5019687;28;19963;-71
2023/08/15 05:50:33;;;;;;;;;;;;;;;;;;5017953;28;19948;-70
2023/08/15 05:52:58;;;;;;;;;;;;;;;;;;5018176;28;20758;-71
2023/08/15 05:55:23;;;;;;;;;;;;;;;;;;4988529;28;20382;-69
2023/08/15 05:57:49;;;;;;;;;;;;;;;;;;5016341;28;19975;-70
2023/08/15 06:00:14;;;;;;;;;;;;;;;;;;5016947;28;19972;-70
2023/08/15 06:02:42;;;;;;;;;;;;;;;;;;5016717;28;21127;-70
2023/08/15 06:05:10;;;;;;;;;;;;;;;;;;5003394;28;20031;-70
2023/08/15 06:07:38;;;;;;;;;;;;;;;;;;4983662;28;20372;-69
2023/08/15 06:10:03;;;;;;;;;;;;;;;;;;5019348;28;20372;-70
2023/08/15 06:12:29;;;;;;;;;;;;;;;;;;4982779;28;19925;-74
2023/08/15 06:14:54;;;;;;;;;;;;;;;;;;5021425;28;19921;-74
2023/08/15 06:17:20;;;;;;;;;;;;;;;;;;4985939;28;19921;-71
2023/08/15 06:19:45;;;;;;;;;;;;;;;;;;5001053;28;19916;-73
2023/08/15 06:22:10;;;;;;;;;;;;;;;;;;4992651;28;20011;-71
2023/08/15 06:24:36;;;;;;;;;;;;;;;;;;5018114;28;20344;-73
2023/08/15 06:27:04;;;;;;;;;;;;;;;;;;5017593;28;19963;-73
2023/08/15 06:29:29;;;;;;;;;;;;;;;;;;5018438;28;19983;-73
2023/08/15 06:31:54;;;;;;;;;;;;;;;;;;5004239;28;20353;-74
2023/08/15 06:34:19;;;;;;;;;;;;;;;;;;4991317;28;19932;-73
2023/08/15 06:36:45;;;;;;;;;;;;;;;;;;4999688;28;20318;-73
2023/08/15 06:39:11;;;;;;;;;;;;;;;;;;5004471;28;19986;-73
2023/08/15 06:41:36;;;;;;;;;;;;;;;;;;5017282;28;19932;-72
2023/08/15 06:44:02;;;;;;;;;;;;;;;;;;5000407;28;19920;-73
2023/08/15 06:46:29;;;;;;;;;;;;;;;;;;4999172;28;19924;-72
2023/08/15 06:48:55;;;;;;;;;;;;;;;;;;4998767;28;19917;-70
2023/08/15 06:51:20;;;;;;;;;;;;;;;;;;5004171;28;19967;-71
2023/08/15 06:53:46;;;;;;;;;;;;;;;;;;4997587;28;19929;-73
2023/08/15 06:56:11;;;;;;;;;;;;;;;;;;5009397;28;19916;-71
2023/08/15 06:58:39;;;;;;;;;;;;;;;;;;4981746;28;20018;-75
2023/08/15 07:01:06;;;;;;;;;;;;;;;;;;5003467;28;19917;-75
2023/08/15 07:03:33;;;;;;;;;;;;;;;;;;5018604;28;19921;-74
2023/08/15 07:05:58;;;;;;;;;;;;;;;;;;5016859;28;19927;-72
2023/08/15 07:08:26;;;;;;;;;;;;;;;;;;4999480;28;19932;-72
2023/08/15 07:10:51;;;;;;;;;;;;;;;;;;4990980;28;19921;-71
2023/08/15 07:13:19;;;;;;;;;;;;;;;;;;5003404;28;19978;-71
2023/08/15 07:15:47;;;;;;;;;;;;;;;;;;5004330;28;19986;-70
2023/08/15 07:18:13;;;;;;;;;;;;;;;;;;5002070;28;19924;-73
2023/08/15 07:20:39;;;;;;;;;;;;;;;;;;5003179;28;20697;-73
2023/08/15 07:23:04;;;;;;;;;;;;;;;;;;4992183;28;19982;-71
2023/08/15 07:25:29;;;;;;;;;;;;;;;;;;5004641;28;19920;-73
2023/08/15 07:27:55;;;;;;;;;;;;;;;;;;5017924;28;20129;-75
2023/08/15 07:30:20;;;;;;;;;;;;;;;;;;4985872;28;20409;-74
2023/08/15 07:32:45;;;;;;;;;;;;;;;;;;5019878;28;19925;-75
2023/08/15 07:35:11;;;;;;;;;;;;;;;;;;5021367;28;19921;-73
2023/08/15 07:37:36;;;;;;;;;;;;;;;;;;5009600;28;20383;-75
2023/08/15 07:40:09;;;;;;;;;;;;;;;;;;5018186;28;19921;-72
2023/08/15 07:42:34;;;;;;;;;;;;;;;;;;5002352;28;19917;-71
2023/08/15 07:45:00;;;;;;;;;;;;;;;;;;5019167;28;19924;-76
2023/08/15 07:47:25;;;;;;;;;;;;;;;;;;5005183;28;20406;-72
2023/08/15 07:49:50;;;;;;;;;;;;;;;;;;5002912;28;20015;-73
2023/08/15 07:52:16;;;;;;;;;;;;;;;;;;4988065;28;20660;-75
2023/08/15 07:54:43;;;;;;;;;;;;;;;;;;5020076;28;19924;-70
2023/08/15 07:57:08;;;;;;;;;;;;;;;;;;5018436;28;19978;-76
2023/08/15 07:59:34;;;;;;;;;;;;;;;;;;4994638;28;20326;-70
2023/08/15 08:02:02;;;;;;;;;;;;;;;;;;4993921;28;21171;-75
2023/08/15 08:04:27;;;;;;;;;;;;;;;;;;5004032;28;19928;-75
2023/08/15 08:06:53;;;;;;;;;;;;;;;;;;5006932;28;19917;-71
2023/08/15 08:09:21;;;;;;;;;;;;;;;;;;5000771;28;20404;-73
2023/08/15 08:11:49;;;;;;;;;;;;;;;;;;5001009;28;19921;-76
2023/08/15 08:14:14;;;;;;;;;;;;;;;;;;5001616;28;19932;-74
2023/08/15 08:16:39;;;;;;;;;;;;;;;;;;4992642;28;20395;-73
2023/08/15 08:19:04;;;;;;;;;;;;;;;;;;5019340;28;19964;-74
2023/08/15 08:21:30;;;;;;;;;;;;;;;;;;4992526;28;19964;-74
2023/08/15 08:23:55;;;;;;;;;;;;;;;;;;5001527;28;19932;-76
2023/08/15 08:26:20;;;;;;;;;;;;;;;;;;5019800;28;19921;-73
2023/08/15 08:28:46;;;;;;;;;;;;;;;;;;5002051;28;19925;-75
2023/08/15 08:31:14;;;;;;;;;;;;;;;;;;5001507;28;20039;-72
2023/08/15 08:33:42;;;;;;;;;;;;;;;;;;5019960;28;20386;-75
2023/08/15 08:36:07;;;;;;;;;;;;;;;;;;4987783;28;19989;-72
2023/08/15 08:38:32;;;;;;;;;;;;;;;;;;4985317;28;19952;-77
2023/08/15 08:40:58;;;;;;;;;;;;;;;;;;4999604;28;20672;-73
2023/08/15 08:43:23;;;;;;;;;;;;;;;;;;5003479;28;19921;-73
2023/08/15 08:45:49;;;;;;;;;;;;;;;;;;4986182;28;19928;-76
2023/08/15 08:48:14;;;;;;;;;;;;;;;;;;4999316;28;19933;-72
2023/08/15 08:50:40;;;;;;;;;;;;;;;;;;4998001;28;19922;-75
2023/08/15 08:53:08;;;;;;;;;;;;;;;;;;4979189;28;19925;-74
2023/08/15 08:55:35;;;;;;;;;;;;;;;;;;4998676;28;19961;-77
2023/08/15 08:58:04;;;;;;;;;;;;;;;;;;4998578;28;19962;-74
2023/08/15 09:00:29;;;;;;;;;;;;;;;;;;4999523;28;20078;-73
2023/08/15 09:02:56;;;;;;;;;;;;;;;;;;5006534;28;19934;-72
2023/08/15 09:05:21;;;;;;;;;;;;;;;;;;5003675;28;20026;-75
2023/08/15 09:07:46;;;;;;;;;;;;;;;;;;4988630;28;21984;-77
2023/08/15 09:10:12;;;;;;;;;;;;;;;;;;4997329;28;19977;-75
2023/08/15 09:12:40;;;;;;;;;;;;;;;;;;5004400;28;20499;-73
2023/08/15 09:15:05;;;;;;;;;;;;;;;;;;4991742;28;19921;-72
2023/08/15 09:17:30;;;;;;;;;;;;;;;;;;4983519;28;19924;-73
2023/08/15 09:19:56;;;;;;;;;;;;;;;;;;5010675;28;20644;-76
2023/08/15 09:22:21;;;;;;;;;;;;;;;;;;4983008;28;19928;-73
2023/08/15 09:24:47;;;;;;;;;;;;;;;;;;4989267;28;20014;-75
2023/08/15 09:27:12;;;;;;;;;;;;;;;;;;5000636;28;19921;-75
2023/08/15 09:29:37;;;;;;;;;;;;;;;;;;5003479;28;19952;-74
2023/08/15 09:32:03;;;;;;;;;;;;;;;;;;5018497;28;19921;-77
2023/08/15 09:34:28;;;;;;;;;;;;;;;;;;5001037;28;20516;-72
2023/08/15 09:36:53;;;;;;;;;;;;;;;;;;5015149;28;19994;-75
2023/08/15 09:39:18;;;;;;;;;;;;;;;;;;5023307;28;19997;-75
2023/08/15 09:41:46;;;;;;;;;;;;;;;;;;5005991;28;19916;-75
2023/08/15 09:44:14;;;;;;;;;;;;;;;;;;5008144;28;20342;-75
2023/08/15 09:46:39;;;;;;;;;;;;;;;;;;5012596;28;21565;-77
2023/08/15 09:49:05;;;;;;;;;;;;;;;;;;5007432;28;19917;-72
2023/08/15 09:51:33;;;;;;;;;;;;;;;;;;5008379;28;19917;-70
2023/08/15 09:54:00;;;;;;;;;;;;;;;;;;5021586;28;19925;-72
2023/08/15 09:56:29;;;;;;;;;;;;;;;;;;5008749;28;19921;-76
2023/08/15 09:58:54;;;;;;;;;;;;;;;;;;4992064;28;19963;-72
2023/08/15 10:01:19;;;;;;;;;;;;;;;;;;4999328;28;19921;-74
2023/08/15 10:03:47;;;;;;;;;;;;;;;;;;5013030;28;20310;-73
2023/08/15 10:06:15;;;;;;;;;;;;;;;;;;5003750;28;20016;-73
2023/08/15 10:08:43;;;;;;;;;;;;;;;;;;4987642;28;20704;-74
2023/08/15 10:11:09;;;;;;;;;;;;;;;;;;5003046;28;19921;-75
2023/08/15 10:13:34;;;;;;;;;;;;;;;;;;5004583;28;19921;-75
2023/08/15 10:16:00;;;;;;;;;;;;;;;;;;4993289;28;20058;-73
2023/08/15 10:18:25;;;;;;;;;;;;;;;;;;5007080;28;20704;-74
2023/08/15 10:20:56;;;;;;;;;;;;;;;;;;4987573;28;20387;-71
2023/08/15 10:23:21;;;;;;;;;;;;;;;;;;5001509;28;19928;-72
2023/08/15 10:25:49;;;;;;;;;;;;;;;;;;5018379;28;19916;-71
2023/08/15 10:28:14;;;;;;;;;;;;;;;;;;5006166;28;20340;-73
2023/08/15 10:30:46;;;;;;;;;;;;;;;;;;4994625;28;19927;-75
2023/08/15 10:33:14;;;;;;;;;;;;;;;;;;4992635;28;21797;-72
2023/08/15 10:35:42;;;;;;;;;;;;;;;;;;4994069;28;19921;-74
2023/08/15 10:38:10;;;;;;;;;;;;;;;;;;5000864;28;19933;-72
2023/08/15 10:40:35;;;;;;;;;;;;;;;;;;4988076;28;19917;-76
2023/08/15 10:43:03;;;;;;;;;;;;;;;;;;4992754;28;20375;-73
2023/08/15 10:45:31;;;;;;;;;;;;;;;;;;4992952;28;19921;-77
2023/08/15 10:47:56;;;;;;;;;;;;;;;;;;4992873;28;20288;-76
2023/08/15 10:50:22;;;;;;;;;;;;;;;;;;5001924;28;19940;-73
2023/08/15 10:52:50;;;;;;;;;;;;;;;;;;5014399;28;19956;-73
2023/08/15 10:55:15;;;;;;;;;;;;;;;;;;4985561;28;19917;-72
2023/08/15 10:57:43;;;;;;;;;;;;;;;;;;4984627;28;20035;-73
2023/08/15 11:00:08;;;;;;;;;;;;;;;;;;5004639;28;20078;-72
2023/08/15 11:02:36;;;;;;;;;;;;;;;;;;4991286;28;20932;-75
2023/08/15 11:05:01;;;;;;;;;;;;;;;;;;5007088;28;19955;-72
2023/08/15 11:07:30;;;;;;;;;;;;;;;;;;4995814;28;19979;-74
2023/08/15 11:09:55;;;;;;;;;;;;;;;;;;5006432;28;19921;-75
2023/08/15 11:12:22;;;;;;;;;;;;;;;;;;4999771;28;20567;-74
2023/08/15 11:14:50;;;;;;;;;;;;;;;;;;5000163;28;20474;-77
2023/08/15 11:17:16;;;;;;;;;;;;;;;;;;4989614;28;19928;-78
2023/08/15 11:19:46;;;;;;;;;;;;;;;;;;4983926;28;19928;-75
2023/08/15 11:22:11;;;;;;;;;;;;;;;;;;4991193;28;19967;-76
2023/08/15 11:24:36;;;;;;;;;;;;;;;;;;5003845;28;21681;-75
2023/08/15 11:27:04;;;;;;;;;;;;;;;;;;4991660;28;20399;-79
2023/08/15 11:29:29;;;;;;;;;;;;;;;;;;5003764;28;19917;-75
2023/08/15 11:31:58;;;;;;;;;;;;;;;;;;5021101;28;19924;-76
2023/08/15 11:34:24;;;;;;;;;;;;;;;;;;5021340;28;19947;-76
2023/08/15 11:36:51;;;;;;;;;;;;;;;;;;5018517;28;21021;-74
2023/08/15 11:39:17;;;;;;;;;;;;;;;;;;4999504;28;19921;-78
2023/08/15 11:41:43;;;;;;;;;;;;;;;;;;5008677;28;20017;-77
2023/08/15 11:44:09;;;;;;;;;;;;;;;;;;5003879;28;19921;-76
2023/08/15 11:46:34;;;;;;;;;;;;;;;;;;5020419;28;20001;-75
2023/08/15 11:48:59;;;;;;;;;;;;;;;;;;5022391;28;19921;-71
2023/08/15 11:51:29;;;;;;;;;;;;;;;;;;5005965;28;19921;-74
2023/08/15 11:53:56;;;;;;;;;;;;;;;;;;5005092;28;19952;-76
2023/08/15 11:56:24;;;;;;;;;;;;;;;;;;5020430;28;19932;-74
2023/08/15 11:58:51;;;;;;;;;;;;;;;;;;5021792;28;20411;-78
2023/08/15 12:01:20;;;;;;;;;;;;;;;;;;4995123;28;20015;-76
2023/08/15 12:03:45;;;;;;;;;;;;;;;;;;5003489;28;19921;-76
2023/08/15 12:06:11;;;;;;;;;;;;;;;;;;5010009;28;19982;-76
2023/08/15 12:08:36;;;;;;;;;;;;;;;;;;5006619;28;19921;-73
2023/08/15 12:11:01;;;;;;;;;;;;;;;;;;5009231;28;19933;-78
2023/08/15 12:13:27;;;;;;;;;;;;;;;;;;5016241;28;19924;-76
2023/08/15 12:15:54;;;;;;;;;;;;;;;;;;4981869;28;19964;-73
2023/08/15 12:18:20;;;;;;;;;;;;;;;;;;4990319;28;20008;-76
2023/08/15 12:20:48;;;;;;;;;;;;;;;;;;5021464;28;19931;-75
2023/08/15 12:23:13;;;;;;;;;;;;;;;;;;4983786;28;19920;-77
2023/08/15 12:25:38;;;;;;;;;;;;;;;;;;5000383;28;19916;-72
2023/08/15 12:28:04;;;;;;;;;;;;;;;;;;5009581;28;19922;-77
2023/08/15 12:30:29;;;;;;;;;;;;;;;;;;5001728;28;19940;-76
2023/08/15 12:32:54;;;;;;;;;;;;;;;;;;5021977;28;19935;-77
2023/08/15 12:35:20;;;;;;;;;;;;;;;;;;5005777;28;20051;-75
2023/08/15 12:37:45;;;;;;;;;;;;;;;;;;4989336;28;19960;-78
2023/08/15 12:40:10;;;;;;;;;;;;;;;;;;4984046;28;20276;-75
2023/08/15 12:42:35;;;;;;;;;;;;;;;;;;5001376;28;19917;-76
2023/08/15 12:45:01;;;;;;;;;;;;;;;;;;5007452;28;20063;-73
2023/08/15 12:47:27;;;;;;;;;;;;;;;;;;5003552;28;20378;-72
2023/08/15 12:49:52;;;;;;;;;;;;;;;;;;5005514;28;19948;-76
2023/08/15 12:52:17;;;;;;;;;;;;;;;;;;5003286;28;20463;-77
2023/08/15 12:54:45;;;;;;;;;;;;;;;;;;4993180;28;20065;-73
2023/08/15 12:57:14;;;;;;;;;;;;;;;;;;5001969;28;19917;-77
2023/08/15 12:59:39;;;;;;;;;;;;;;;;;;5000590;28;19964;-72
2023/08/15 13:02:08;;;;;;;;;;;;;;;;;;5002082;28;20008;-73
2023/08/15 13:04:33;;;;;;;;;;;;;;;;;;5002931;28;19955;-74
2023/08/15 13:06:59;;;;;;;;;;;;;;;;;;5001954;28;19921;-70
2023/08/15 13:09:24;;;;;;;;;;;;;;;;;;4988794;28;19980;-76
2023/08/15 13:11:50;;;;;;;;;;;;;;;;;;4990289;28;19932;-76
2023/08/15 13:14:18;;;;;;;;;;;;;;;;;;4990830;28;20019;-77
2023/08/15 13:16:43;;;;;;;;;;;;;;;;;;5001918;28;19924;-76
2023/08/15 13:19:08;;;;;;;;;;;;;;;;;;4999918;28;20510;-78
2023/08/15 13:21:34;;;;;;;;;;;;;;;;;;5003918;28;19924;-76
2023/08/15 13:23:59;;;;;;;;;;;;;;;;;;5004395;28;19924;-76
2023/08/15 13:26:24;;;;;;;;;;;;;;;;;;5002856;28;19921;-78
2023/08/15 13:28:49;;;;;;;;;;;;;;;;;;4999119;28;20012;-76
2023/08/15 13:31:15;;;;;;;;;;;;;;;;;;5001730;28;20856;-76
2023/08/15 13:33:40;;;;;;;;;;;;;;;;;;5000920;28;19917;-76
2023/08/15 13:36:05;;;;;;;;;;;;;;;;;;4993727;28;19921;-74
2023/08/15 13:38:31;;;;;;;;;;;;;;;;;;5019415;28;20356;-77
2023/08/15 13:40:56;;;;;;;;;;;;;;;;;;5006567;28;19912;-74
2023/08/15 13:43:21;;;;;;;;;;;;;;;;;;5022623;28;21025;-77
2023/08/15 13:45:47;;;;;;;;;;;;;;;;;;4993402;28;19916;-77
2023/08/15 13:48:16;;;;;;;;;;;;;;;;;;5006887;28;19928;-75
2023/08/15 13:50:41;;;;;;;;;;;;;;;;;;5022190;28;20624;-77
2023/08/15 13:53:07;;;;;;;;;;;;;;;;;;5007479;28;19921;-78
2023/08/15 13:55:33;;;;;;;;;;;;;;;;;;5000992;28;20456;-75
2023/08/15 13:57:58;;;;;;;;;;;;;;;;;;5004441;28;19921;-73
2023/08/15 14:00:24;;;;;;;;;;;;;;;;;;5022983;28;19924;-77
2023/08/15 14:02:51;;;;;;;;;;;;;;;;;;5002650;28;19966;-74
2023/08/15 14:05:16;;;;;;;;;;;;;;;;;;4995794;28;19922;-77
2023/08/15 14:07:44;;;;;;;;;;;;;;;;;;5000479;28;19917;-76
2023/08/15 14:10:11;;;;;;;;;;;;;;;;;;4996475;28;19917;-77
2023/08/15 14:12:36;;;;;;;;;;;;;;;;;;5019820;28;19917;-76
2023/08/15 14:15:02;;;;;;;;;;;;;;;;;;5000994;28;19921;-73
2023/08/15 14:17:27;;;;;;;;;;;;;;;;;;5020943;28;20077;-74
2023/08/15 14:19:52;;;;;;;;;;;;;;;;;;4991789;28;19928;-75
2023/08/15 14:22:18;;;;;;;;;;;;;;;;;;4997747;28;19932;-76
2023/08/15 14:24:47;;;;;;;;;;;;;;;;;;4989178;28;19925;-76
2023/08/15 14:27:12;;;;;;;;;;;;;;;;;;5006772;28;19921;-74
2023/08/15 14:29:37;;;;;;;;;;;;;;;;;;4981398;28;19956;-77
2023/08/15 14:32:03;;;;;;;;;;;;;;;;;;4998978;28;19979;-73
2023/08/15 14:34:28;;;;;;;;;;;;;;;;;;4998508;28;20375;-72
2023/08/15 14:36:56;;;;;;;;;;;;;;;;;;4995868;28;19929;-75
2023/08/15 14:39:24;;;;;;;;;;;;;;;;;;4988712;28;20010;-73
2023/08/15 14:41:49;;;;;;;;;;;;;;;;;;4989359;28;20016;-73
2023/08/15 14:44:17;;;;;;;;;;;;;;;;;;4984482;28;19946;-76
2023/08/15 14:46:43;;;;;;;;;;;;;;;;;;4988610;28;21251;-76
2023/08/15 14:49:08;;;;;;;;;;;;;;;;;;5013394;28;19928;-74
2023/08/15 14:51:33;;;;;;;;;;;;;;;;;;5005216;28;19917;-74
2023/08/15 14:53:59;;;;;;;;;;;;;;;;;;5015460;28;19921;-73
2023/08/15 14:56:26;;;;;;;;;;;;;;;;;;5003216;28;20412;-72
2023/08/15 14:58:52;;;;;;;;;;;;;;;;;;5002153;28;19990;-75
2023/08/15 15:01:17;;;;;;;;;;;;;;;;;;5005562;28;19925;-78
2023/08/15 15:03:42;;;;;;;;;;;;;;;;;;4983753;28;19925;-72
2023/08/15 15:06:10;;;;;;;;;;;;;;;;;;4997827;28;19927;-75
2023/08/15 15:08:35;;;;;;;;;;;;;;;;;;4997648;28;19917;-76
2023/08/15 15:11:03;;;;;;;;;;;;;;;;;;5000000;28;19921;-73
2023/08/15 15:13:28;;;;;;;;;;;;;;;;;;5000289;28;19921;-75
2023/08/15 15:15:56;;;;;;;;;;;;;;;;;;4988486;28;19970;-74
2023/08/15 15:18:21;;;;;;;;;;;;;;;;;;5008088;28;19921;-75
2023/08/15 15:20:49;;;;;;;;;;;;;;;;;;5010354;28;20165;-73
2023/08/15 15:23:14;;;;;;;;;;;;;;;;;;4991150;28;20701;-74
2023/08/15 15:25:40;;;;;;;;;;;;;;;;;;5021019;28;19968;-74
2023/08/15 15:28:05;;;;;;;;;;;;;;;;;;5000882;28;19917;-76
2023/08/15 15:30:33;;;;;;;;;;;;;;;;;;5018078;28;19953;-76
2023/08/15 15:32:58;;;;;;;;;;;;;;;;;;5004494;28;20423;-76
2023/08/15 15:35:24;;;;;;;;;;;;;;;;;;5005998;28;19917;-73
2023/08/15 15:37:51;;;;;;;;;;;;;;;;;;5000573;28;20422;-76
2023/08/15 15:40:16;;;;;;;;;;;;;;;;;;4999392;28;19920;-78
2023/08/15 15:42:44;;;;;;;;;;;;;;;;;;5018357;28;19921;-75
2023/08/15 15:45:09;;;;;;;;;;;;;;;;;;4990858;28;19940;-75
2023/08/15 15:47:34;;;;;;;;;;;;;;;;;;5002091;28;19924;-73
2023/08/15 15:50:00;;;;;;;;;;;;;;;;;;5003304;28;20048;-73
2023/08/15 15:52:25;;;;;;;;;;;;;;;;;;5013108;28;19920;-74
2023/08/15 15:54:50;;;;;;;;;;;;;;;;;;5000307;28;19927;-72
2023/08/15 15:57:18;;;;;;;;;;;;;;;;;;5004732;28;20002;-73
2023/08/15 15:59:44;;;;;;;;;;;;;;;;;;5001816;28;20015;-76
2023/08/15 16:02:09;;;;;;;;;;;;;;;;;;5004835;28;19951;-77
2023/08/15 16:04:34;;;;;;;;;;;;;;;;;;5001609;28;19921;-74
2023/08/15 16:06:59;;;;;;;;;;;;;;;;;;5000242;28;19970;-75
2023/08/15 16:09:25;;;;;;;;;;;;;;;;;;5000901;28;20016;-74
2023/08/15 16:11:50;;;;;;;;;;;;;;;;;;5002560;28;19920;-74
2023/08/15 16:14:15;;;;;;;;;;;;;;;;;;5000812;28;19921;-78
2023/08/15 16:16:41;;;;;;;;;;;;;;;;;;4996159;28;19943;-75
2023/08/15 16:19:06;;;;;;;;;;;;;;;;;;5021684;28;19921;-75
2023/08/15 16:21:31;;;;;;;;;;;;;;;;;;5006724;28;19945;-76
2023/08/15 16:23:59;;;;;;;;;;;;;;;;;;5004040;28;19991;-77
2023/08/15 16:26:24;;;;;;;;;;;;;;;;;;5022198;28;20384;-72
2023/08/15 16:28:49;;;;;;;;;;;;;;;;;;5012228;28;20287;-74
2023/08/15 16:31:15;;;;;;;;;;;;;;;;;;5013940;28;19921;-76
2023/08/15 16:33:40;;;;;;;;;;;;;;;;;;5023070;28;19927;-78
2023/08/15 16:36:05;;;;;;;;;;;;;;;;;;5024531;28;19921;-77